Terminal Aerodrome Forecast
Issued by NWS

Home | Current Version | Previous Version | Text Only | Print | Product List | Glossary On
Versions: 1 2 3 4 5 6 7 8 9 10 11 12 13 14 15 16 17 18 19 20 21 22 23 24 25 26 27 28 29 30 31 32 33 34 35 36 37 38 39
000
FTUS45 KGJT 072335
TAFRIL
TAF
KRIL 072335Z 0800/0824 VRB04KT P6SM VCTS FEW035 BKN070CB
     FM080100 13007KT P6SM -SHRA VCTS SCT060CB OVC090
     FM080800 VRB03KT P6SM VCSH BKN090
     FM081100 00000KT P6SM OVC070
     FM081400 00000KT P6SM VCSH OVC050=

USA.gov is the U.S. government's official web portal to all federal, state and local government web resources and services.